Time;durP1;ratioP1;P1;durP2;ratioP2;P2;SDS_P1;SDS_P2;PMS_P1;PMS_P2;Temp;Humidity;BMP_temperature;BMP_pressure;BME280_temperature;BME280_humidity;BME280_pressure;Samples;Min_cycle;Max_cycle;Signal;HPM_P1;HPM_P2
2022/03/08 00:00:30;;;;;;;11.30;5.35;;;5.30;52.10;;;;;;5113620;28;20036;-68
2022/03/08 00:02:57;;;;;;;9.15;5.30;;;5.30;52.20;;;;;;5113510;28;20032;-68
2022/03/08 00:05:23;;;;;;;9.00;5.63;;;5.30;52.30;;;;;;5113557;28;20024;-67
2022/03/08 00:07:50;;;;;;;9.85;5.47;;;5.30;52.40;;;;;;5113474;28;20054;-68
2022/03/08 00:10:16;;;;;;;9.32;5.20;;;5.30;52.40;;;;;;5112627;28;20020;-68
2022/03/08 00:12:43;;;;;;;9.43;4.63;;;5.30;52.40;;;;;;5113469;28;20016;-66
2022/03/08 00:15:14;;;;;;;10.15;4.88;;;5.30;52.30;;;;;;5113437;28;20084;-66
2022/03/08 00:17:39;;;;;;;9.90;4.90;;;5.20;51.80;;;;;;5113394;28;20062;-66
2022/03/08 00:20:07;;;;;;;8.90;5.07;;;5.10;51.90;;;;;;5113379;28;20028;-66
2022/03/08 00:22:37;;;;;;;9.77;5.20;;;5.10;51.90;;;;;;5113263;28;20545;-66
2022/03/08 00:25:04;;;;;;;8.80;4.57;;;5.10;51.90;;;;;;5113444;28;20021;-66
2022/03/08 00:27:30;;;;;;;8.52;4.45;;;5.10;52.10;;;;;;5113247;28;20036;-66
2022/03/08 00:29:56;;;;;;;10.80;4.95;;;5.10;52.10;;;;;;5113321;28;20071;-66
2022/03/08 00:32:22;;;;;;;8.32;4.68;;;5.10;52.20;;;;;;5113266;28;20028;-66
2022/03/08 00:34:48;;;;;;;7.32;4.60;;;5.00;52.10;;;;;;5095351;28;20104;-66
2022/03/08 00:37:14;;;;;;;9.23;4.40;;;5.00;52.20;;;;;;5095303;28;20028;-66
2022/03/08 00:39:40;;;;;;;11.48;4.93;;;5.00;51.90;;;;;;5113208;28;20028;-66
2022/03/08 00:42:11;;;;;;;12.93;4.82;;;5.00;52.00;;;;;;5113162;28;20031;-66
2022/03/08 00:44:40;;;;;;;11.27;5.07;;;5.10;51.90;;;;;;5113230;28;20030;-66
2022/03/08 00:47:07;;;;;;;10.45;4.80;;;5.10;52.80;;;;;;5095818;28;20325;-66
2022/03/08 00:49:33;;;;;;;8.55;4.72;;;5.10;51.80;;;;;;5113105;28;20079;-66
2022/03/08 00:51:59;;;;;;;9.73;4.32;;;5.10;51.60;;;;;;5112879;28;20096;-66
2022/03/08 00:54:25;;;;;;;10.25;4.85;;;5.10;51.50;;;;;;5095208;28;20024;-66
2022/03/08 00:56:51;;;;;;;7.25;4.25;;;5.00;51.00;;;;;;5113056;28;20035;-66
2022/03/08 00:59:16;;;;;;;8.35;4.47;;;5.00;50.80;;;;;;5112998;28;20024;-66
2022/03/08 01:01:42;;;;;;;9.43;4.70;;;4.90;51.30;;;;;;5095234;28;20032;-66
2022/03/08 01:04:08;;;;;;;8.48;4.88;;;4.90;51.60;;;;;;5095194;28;20039;-66
2022/03/08 01:06:34;;;;;;;8.10;4.70;;;4.90;51.70;;;;;;5095151;28;20080;-66
2022/03/08 01:09:01;;;;;;;9.23;4.72;;;4.90;51.50;;;;;;5112941;28;20057;-66
2022/03/08 01:11:27;;;;;;;8.82;4.60;;;4.90;51.50;;;;;;5094954;28;20026;-66
2022/03/08 01:13:54;;;;;;;7.68;4.70;;;4.80;51.40;;;;;;5112892;28;20025;-66
2022/03/08 01:16:20;;;;;;;8.65;4.65;;;4.80;51.50;;;;;;5112876;28;20039;-66
2022/03/08 01:18:45;;;;;;;7.25;4.28;;;4.70;51.30;;;;;;5112822;28;20020;-66
2022/03/08 01:21:14;;;;;;;10.43;4.82;;;4.60;51.70;;;;;;5095695;28;20099;-66
2022/03/08 01:23:40;;;;;;;10.88;4.80;;;4.70;52.10;;;;;;5116470;28;20056;-66
2022/03/08 01:26:06;;;;;;;8.18;4.60;;;4.70;52.10;;;;;;5116489;28;20042;-66
2022/03/08 01:28:32;;;;;;;8.20;4.60;;;4.70;51.90;;;;;;5116383;28;20087;-66
2022/03/08 01:30:57;;;;;;;9.68;4.57;;;4.70;52.10;;;;;;5081805;28;20048;-66
2022/03/08 01:33:23;;;;;;;7.22;4.22;;;4.70;52.30;;;;;;5116329;28;20473;-66
2022/03/08 01:35:48;;;;;;;9.48;4.82;;;4.60;52.50;;;;;;5116327;28;20088;-66
2022/03/08 01:38:14;;;;;;;9.90;5.18;;;4.60;52.60;;;;;;5116255;28;20048;-66
2022/03/08 01:40:40;;;;;;;9.02;5.47;;;4.60;52.60;;;;;;5116212;28;20024;-66
2022/03/08 01:43:07;;;;;;;7.65;4.63;;;4.60;52.00;;;;;;5116193;28;20395;-66
2022/03/08 01:45:34;;;;;;;10.82;4.95;;;4.50;52.50;;;;;;5116138;28;20028;-67
2022/03/08 01:48:00;;;;;;;9.18;4.68;;;4.50;52.90;;;;;;5097977;28;20051;-66
2022/03/08 01:50:26;;;;;;;7.95;4.43;;;4.50;52.90;;;;;;5116154;28;20463;-68
2022/03/08 01:52:52;;;;;;;10.07;5.00;;;4.50;52.80;;;;;;5115707;28;20101;-66
2022/03/08 01:55:19;;;;;;;9.27;4.50;;;4.50;52.90;;;;;;5115907;28;20408;-66
2022/03/08 01:57:47;;;;;;;8.07;4.25;;;4.50;52.80;;;;;;5115843;28;20080;-66
2022/03/08 02:00:17;;;;;;;10.82;4.43;;;4.50;52.80;;;;;;5115854;28;20088;-66
2022/03/08 02:02:43;;;;;;;8.43;4.32;;;4.50;52.80;;;;;;5115773;28;20062;-66
2022/03/08 02:05:10;;;;;;;8.50;4.57;;;4.50;53.00;;;;;;5115770;28;20039;-67
2022/03/08 02:07:35;;;;;;;7.90;4.40;;;4.50;53.10;;;;;;5115621;28;20025;-67
2022/03/08 02:10:02;;;;;;;9.90;4.80;;;4.50;53.00;;;;;;5115693;28;20031;-66
2022/03/08 02:12:27;;;;;;;7.43;4.43;;;4.40;53.00;;;;;;5097644;28;20028;-66
2022/03/08 02:14:53;;;;;;;6.90;4.28;;;4.40;53.10;;;;;;5115608;28;20020;-66
2022/03/08 02:17:19;;;;;;;8.60;4.78;;;4.40;53.10;;;;;;5097665;28;20044;-66
2022/03/08 02:19:44;;;;;;;8.38;4.95;;;4.30;53.20;;;;;;5097599;28;20088;-66
2022/03/08 02:22:10;;;;;;;7.63;4.38;;;4.30;53.30;;;;;;5097601;28;20035;-68
2022/03/08 02:24:36;;;;;;;8.60;4.32;;;4.20;53.30;;;;;;5115296;28;20043;-66
2022/03/08 02:27:01;;;;;;;7.00;4.25;;;4.30;53.40;;;;;;5115211;28;20039;-66
2022/03/08 02:29:28;;;;;;;8.82;4.50;;;4.20;52.90;;;;;;5097299;28;20028;-67
2022/03/08 02:31:55;;;;;;;7.68;4.40;;;4.10;53.10;;;;;;5115188;28;20058;-66
2022/03/08 02:34:21;;;;;;;7.28;4.72;;;4.10;53.50;;;;;;5114293;28;20116;-66
2022/03/08 02:36:59;;;;;;;10.40;4.60;;;4.10;53.70;;;;;;5097172;28;20032;-66
2022/03/08 02:39:25;;;;;;;8.90;4.50;;;4.10;53.50;;;;;;5115062;28;20024;-66
2022/03/08 02:41:50;;;;;;;8.70;4.38;;;4.00;53.50;;;;;;5115003;28;20023;-66
2022/03/08 02:44:16;;;;;;;8.52;4.47;;;4.00;53.60;;;;;;5114991;28;20024;-66
2022/03/08 02:46:42;;;;;;;7.97;4.78;;;3.90;53.60;;;;;;5096873;28;20092;-66
2022/03/08 02:49:08;;;;;;;8.48;4.07;;;3.90;53.50;;;;;;5114874;28;20028;-66
2022/03/08 02:51:33;;;;;;;8.80;4.93;;;3.80;53.60;;;;;;5114832;28;20087;-66
2022/03/08 02:53:59;;;;;;;8.98;4.95;;;3.80;53.80;;;;;;5096659;28;20048;-66
2022/03/08 02:56:24;;;;;;;7.95;4.40;;;3.90;53.90;;;;;;5114741;28;20042;-66
2022/03/08 02:58:50;;;;;;;7.80;4.65;;;3.90;54.00;;;;;;5096815;28;20017;-67
2022/03/08 03:01:16;;;;;;;9.60;4.80;;;3.90;53.60;;;;;;5096866;28;20036;-66
2022/03/08 03:03:41;;;;;;;9.20;4.53;;;3.90;53.80;;;;;;5114606;28;20040;-66
2022/03/08 03:06:07;;;;;;;13.25;4.75;;;3.90;53.60;;;;;;5114575;28;20096;-66
2022/03/08 03:08:32;;;;;;;9.18;4.43;;;3.80;53.40;;;;;;5096502;28;20096;-66
2022/03/08 03:10:58;;;;;;;8.00;4.47;;;3.80;53.40;;;;;;5096647;28;20049;-66
2022/03/08 03:13:24;;;;;;;9.70;4.60;;;3.80;53.50;;;;;;5114423;28;20032;-66
2022/03/08 03:15:49;;;;;;;9.82;5.10;;;3.80;53.80;;;;;;5114377;28;20027;-66
2022/03/08 03:18:15;;;;;;;10.75;5.15;;;3.70;54.00;;;;;;5114314;28;20036;-66
2022/03/08 03:20:40;;;;;;;9.38;5.03;;;3.70;54.20;;;;;;5114306;28;20073;-66
2022/03/08 03:23:08;;;;;;;10.32;4.88;;;3.80;54.10;;;;;;5114238;28;20029;-66
2022/03/08 03:25:34;;;;;;;8.93;4.60;;;3.80;54.20;;;;;;5096167;28;20028;-66
2022/03/08 03:27:59;;;;;;;9.35;5.28;;;3.70;54.00;;;;;;5114094;28;20063;-66
2022/03/08 03:30:25;;;;;;;9.38;5.10;;;3.60;54.40;;;;;;5114115;28;20035;-66
2022/03/08 03:32:51;;;;;;;9.55;5.10;;;3.60;54.40;;;;;;5114074;28;20035;-66
2022/03/08 03:35:18;;;;;;;11.00;5.10;;;3.60;54.60;;;;;;5114023;28;20024;-66
2022/03/08 03:37:44;;;;;;;9.70;5.07;;;3.70;54.60;;;;;;5113956;28;20030;-66
2022/03/08 03:40:10;;;;;;;9.02;4.95;;;3.70;54.60;;;;;;5096027;28;20028;-66
2022/03/08 03:42:37;;;;;;;7.82;4.60;;;3.80;54.60;;;;;;5113903;28;20042;-66
2022/03/08 03:45:05;;;;;;;9.60;5.28;;;3.70;54.30;;;;;;5113740;28;20024;-66
2022/03/08 03:47:31;;;;;;;9.15;4.88;;;3.80;54.40;;;;;;5113765;28;20028;-66
2022/03/08 03:49:56;;;;;;;9.85;4.85;;;3.70;54.40;;;;;;5113920;28;20028;-66
2022/03/08 03:52:22;;;;;;;8.63;4.88;;;3.70;54.40;;;;;;5113571;28;20052;-66
2022/03/08 03:54:47;;;;;;;12.65;5.55;;;3.70;54.40;;;;;;5113741;28;20021;-66
2022/03/08 03:57:13;;;;;;;9.88;4.95;;;3.70;54.40;;;;;;5113673;28;20028;-66
2022/03/08 03:59:40;;;;;;;9.23;5.43;;;3.70;54.70;;;;;;5113661;28;20028;-66
2022/03/08 04:02:05;;;;;;;8.18;4.95;;;3.60;54.40;;;;;;5113586;28;20034;-66
2022/03/08 04:04:31;;;;;;;9.20;4.93;;;3.60;54.80;;;;;;5113556;28;20031;-66
2022/03/08 04:06:57;;;;;;;9.57;4.50;;;3.60;54.80;;;;;;5113477;28;20024;-66
2022/03/08 04:09:22;;;;;;;10.50;5.22;;;3.60;54.90;;;;;;5095755;28;20035;-66
2022/03/08 04:11:48;;;;;;;8.00;4.60;;;3.60;54.80;;;;;;5113477;28;20028;-66
2022/03/08 04:14:15;;;;;;;9.85;4.78;;;3.60;54.90;;;;;;5095602;28;20028;-66
2022/03/08 04:16:41;;;;;;;11.27;4.63;;;3.70;55.00;;;;;;5113403;28;20013;-66
2022/03/08 04:19:07;;;;;;;8.00;4.82;;;3.60;55.10;;;;;;5113406;28;20042;-66
2022/03/08 04:21:32;;;;;;;10.20;5.05;;;3.60;55.90;;;;;;5113518;28;20028;-66
2022/03/08 04:23:59;;;;;;;9.38;4.85;;;3.60;55.00;;;;;;5113288;28;20039;-66
2022/03/08 04:26:25;;;;;;;8.63;4.93;;;3.60;54.90;;;;;;5095672;28;20024;-66
2022/03/08 04:28:50;;;;;;;9.77;5.18;;;3.60;54.90;;;;;;5113242;28;20032;-66
2022/03/08 04:31:16;;;;;;;9.23;4.93;;;3.60;54.80;;;;;;5113379;28;20020;-66
2022/03/08 04:33:42;;;;;;;10.63;5.78;;;3.60;54.80;;;;;;5095556;28;20067;-66
2022/03/08 04:36:08;;;;;;;9.63;4.88;;;3.60;54.60;;;;;;5113266;28;20028;-66
2022/03/08 04:38:34;;;;;;;8.70;4.95;;;3.60;54.40;;;;;;5113181;28;20021;-66
2022/03/08 04:41:02;;;;;;;9.70;4.93;;;3.60;54.80;;;;;;5113191;28;20039;-66
2022/03/08 04:43:31;;;;;;;9.50;4.82;;;3.60;54.90;;;;;;5095840;28;20027;-66
2022/03/08 04:45:57;;;;;;;8.77;5.05;;;3.60;54.90;;;;;;5113130;28;20020;-66
2022/03/08 04:48:22;;;;;;;9.50;5.10;;;3.50;54.50;;;;;;5095122;28;20036;-66
2022/03/08 04:50:48;;;;;;;9.95;5.13;;;3.50;54.80;;;;;;5113108;28;20032;-66
2022/03/08 04:53:13;;;;;;;8.98;4.93;;;3.50;54.90;;;;;;5112830;28;20100;-66
2022/03/08 04:55:39;;;;;;;9.98;5.85;;;3.50;54.90;;;;;;5113126;28;20052;-66
2022/03/08 04:58:05;;;;;;;9.40;5.00;;;3.50;55.00;;;;;;5117198;28;20035;-66
2022/03/08 05:00:30;;;;;;;8.93;5.50;;;3.50;54.90;;;;;;5117017;28;20081;-66
2022/03/08 05:02:56;;;;;;;11.60;4.88;;;3.50;54.90;;;;;;5116970;28;20028;-66
2022/03/08 05:05:22;;;;;;;9.57;4.95;;;3.50;55.10;;;;;;5116924;28;20039;-66
2022/03/08 05:07:48;;;;;;;10.02;5.07;;;3.50;56.20;;;;;;5116806;28;20028;-66
2022/03/08 05:10:13;;;;;;;8.93;5.32;;;3.50;55.30;;;;;;5116810;28;20024;-66
2022/03/08 05:12:40;;;;;;;8.63;4.72;;;3.50;55.30;;;;;;5116795;28;20032;-66
2022/03/08 05:15:06;;;;;;;8.63;5.25;;;3.50;55.40;;;;;;5116735;28;20051;-66
2022/03/08 05:17:32;;;;;;;9.07;5.18;;;3.50;55.30;;;;;;5116788;28;20024;-66
2022/03/08 05:19:58;;;;;;;11.07;5.72;;;3.50;55.50;;;;;;5116688;28;20036;-66
2022/03/08 05:22:24;;;;;;;10.65;4.90;;;3.40;55.50;;;;;;5098736;28;20038;-66
2022/03/08 05:24:50;;;;;;;11.40;5.57;;;3.40;55.60;;;;;;5116471;28;20043;-66
2022/03/08 05:27:16;;;;;;;11.13;5.13;;;3.50;55.70;;;;;;5116453;28;20028;-66
2022/03/08 05:29:41;;;;;;;9.18;5.35;;;3.40;55.30;;;;;;5116414;28;20028;-66
2022/03/08 05:32:07;;;;;;;10.57;4.95;;;3.40;55.70;;;;;;5116379;28;20053;-66
2022/03/08 05:34:33;;;;;;;10.07;5.18;;;3.40;55.90;;;;;;5098536;28;20016;-66
2022/03/08 05:36:59;;;;;;;9.38;5.07;;;3.30;55.90;;;;;;5116287;28;20027;-66
2022/03/08 05:39:25;;;;;;;10.27;5.28;;;3.30;56.00;;;;;;5116251;28;20056;-66
2022/03/08 05:41:50;;;;;;;8.93;5.15;;;3.30;55.90;;;;;;5116230;28;20034;-66
2022/03/08 05:44:16;;;;;;;9.65;4.75;;;3.30;55.90;;;;;;5116144;28;20031;-66
2022/03/08 05:46:43;;;;;;;9.73;4.85;;;3.30;56.10;;;;;;5116064;28;20099;-66
2022/03/08 05:49:08;;;;;;;10.65;5.47;;;3.30;56.20;;;;;;5116184;28;20391;-66
2022/03/08 05:51:34;;;;;;;8.90;5.25;;;3.30;56.30;;;;;;5116081;28;20107;-66
2022/03/08 05:54:00;;;;;;;9.95;5.25;;;3.30;56.30;;;;;;5097823;28;20111;-66
2022/03/08 05:56:26;;;;;;;9.98;5.28;;;3.30;56.40;;;;;;5115918;28;20090;-65
2022/03/08 05:58:51;;;;;;;9.65;5.20;;;3.20;56.30;;;;;;5115852;28;20039;-65
2022/03/08 06:01:17;;;;;;;11.35;5.22;;;3.20;56.50;;;;;;5115825;28;20032;-66
2022/03/08 06:03:43;;;;;;;8.43;5.13;;;3.20;56.50;;;;;;5097978;28;20020;-66
2022/03/08 06:06:09;;;;;;;10.45;5.47;;;3.20;56.60;;;;;;5115753;28;20044;-66
2022/03/08 06:08:34;;;;;;;9.02;5.22;;;3.20;56.60;;;;;;5096380;28;20048;-65
2022/03/08 06:11:00;;;;;;;12.30;5.53;;;3.20;56.60;;;;;;5115741;28;20028;-67
2022/03/08 06:13:25;;;;;;;10.90;5.28;;;3.20;56.60;;;;;;5115576;28;20044;-65
2022/03/08 06:15:51;;;;;;;9.57;5.47;;;3.20;56.60;;;;;;5097606;28;20028;-65
2022/03/08 06:18:17;;;;;;;10.27;5.40;;;3.10;56.70;;;;;;5115619;28;20024;-66
2022/03/08 06:20:42;;;;;;;10.35;5.95;;;3.10;56.40;;;;;;5115582;28;20032;-66
2022/03/08 06:23:08;;;;;;;9.57;5.05;;;3.10;56.90;;;;;;5097538;28;20039;-66
2022/03/08 06:25:34;;;;;;;10.27;5.43;;;3.10;57.00;;;;;;5115274;28;20029;-66
2022/03/08 06:28:00;;;;;;;7.93;4.88;;;3.10;57.00;;;;;;5097445;28;20028;-66
2022/03/08 06:30:26;;;;;;;8.57;4.97;;;3.00;56.90;;;;;;5115286;28;20020;-66
2022/03/08 06:32:51;;;;;;;11.15;6.10;;;3.10;57.00;;;;;;5115179;28;20512;-66
2022/03/08 06:35:18;;;;;;;9.05;5.07;;;3.00;57.10;;;;;;5115173;28;20094;-66
2022/03/08 06:37:43;;;;;;;8.23;5.10;;;3.00;57.30;;;;;;5115139;28;20040;-66
2022/03/08 06:40:10;;;;;;;11.23;5.63;;;2.90;57.30;;;;;;5115089;28;20039;-66
2022/03/08 06:42:36;;;;;;;11.32;6.07;;;2.90;57.40;;;;;;5115011;28;20096;-66
2022/03/08 06:45:06;;;;;;;11.15;5.68;;;2.90;58.60;;;;;;5097003;28;20383;-66
2022/03/08 06:47:32;;;;;;;14.15;6.22;;;2.90;57.60;;;;;;5096869;28;20114;-66
2022/03/08 06:49:57;;;;;;;10.10;5.18;;;2.90;57.90;;;;;;5114916;28;20045;-66
2022/03/08 06:52:23;;;;;;;9.73;5.95;;;2.90;58.10;;;;;;5114656;28;20073;-66
2022/03/08 06:54:49;;;;;;;10.73;6.05;;;2.80;58.40;;;;;;5114847;28;20113;-66
2022/03/08 06:57:14;;;;;;;10.40;6.07;;;2.80;58.40;;;;;;5096732;28;20046;-66
2022/03/08 06:59:40;;;;;;;11.80;6.13;;;2.90;58.50;;;;;;5096700;28;20028;-66
2022/03/08 07:02:06;;;;;;;15.95;6.22;;;2.90;58.50;;;;;;5096802;28;20111;-66
2022/03/08 07:04:31;;;;;;;10.82;5.47;;;2.90;58.50;;;;;;5114588;28;20024;-66
2022/03/08 07:06:57;;;;;;;11.13;5.88;;;2.90;59.30;;;;;;5114498;28;20028;-66
2022/03/08 07:09:23;;;;;;;10.68;5.72;;;2.90;59.10;;;;;;5114595;28;20048;-66
2022/03/08 07:11:49;;;;;;;11.98;5.60;;;2.90;59.30;;;;;;5114373;28;20069;-66
2022/03/08 07:14:15;;;;;;;19.90;6.75;;;3.00;59.20;;;;;;5096395;28;20104;-66
2022/03/08 07:16:45;;;;;;;11.32;5.75;;;3.00;58.70;;;;;;5096417;28;20039;-66
2022/03/08 07:19:13;;;;;;;14.05;6.88;;;3.00;58.60;;;;;;5095974;28;20016;-66
2022/03/08 07:21:39;;;;;;;8.60;4.78;;;3.10;59.10;;;;;;5114269;28;20020;-66
2022/03/08 07:24:05;;;;;;;10.10;5.50;;;3.20;58.60;;;;;;5096525;28;20024;-66
2022/03/08 07:26:31;;;;;;;12.55;5.68;;;3.10;59.50;;;;;;5114075;28;20106;-66
2022/03/08 07:28:57;;;;;;;12.30;6.15;;;3.20;58.30;;;;;;5114213;28;20029;-66
2022/03/08 07:31:22;;;;;;;9.35;5.68;;;3.30;58.80;;;;;;5114097;28;20032;-66
2022/03/08 07:33:48;;;;;;;11.25;6.55;;;3.30;58.70;;;;;;5114043;28;20026;-66
2022/03/08 07:36:13;;;;;;;11.05;5.68;;;3.50;58.30;;;;;;5079354;28;20466;-66
2022/03/08 07:38:39;;;;;;;11.07;6.40;;;3.50;58.30;;;;;;5114003;28;20028;-66
2022/03/08 07:41:06;;;;;;;11.00;5.85;;;3.50;58.30;;;;;;5113938;28;20092;-66
2022/03/08 07:43:34;;;;;;;10.65;6.13;;;3.60;57.90;;;;;;5113843;28;20091;-66
2022/03/08 07:46:00;;;;;;;10.90;6.60;;;3.70;57.30;;;;;;5113869;28;20024;-66
2022/03/08 07:48:26;;;;;;;11.40;6.40;;;3.60;57.40;;;;;;5113732;28;20028;-66
2022/03/08 07:50:51;;;;;;;10.82;5.60;;;3.70;57.90;;;;;;5113846;28;20020;-66
2022/03/08 07:53:17;;;;;;;11.25;5.72;;;3.70;58.50;;;;;;5095756;28;20050;-66
2022/03/08 07:55:43;;;;;;;9.48;5.18;;;3.70;58.30;;;;;;5113707;28;20039;-66
2022/03/08 07:58:13;;;;;;;9.77;6.13;;;3.70;57.70;;;;;;5096041;28;20074;-66
2022/03/08 08:00:39;;;;;;;9.55;5.90;;;3.80;57.50;;;;;;5113884;28;20478;-66
2022/03/08 08:03:05;;;;;;;12.93;6.50;;;3.90;57.40;;;;;;5113601;28;20038;-66
2022/03/08 08:05:33;;;;;;;11.25;5.82;;;4.00;58.00;;;;;;5113571;28;20031;-66
2022/03/08 08:07:59;;;;;;;9.98;5.18;;;4.00;57.60;;;;;;5113502;28;20028;-66
2022/03/08 08:10:25;;;;;;;7.20;4.05;;;4.10;57.30;;;;;;5095733;28;20028;-66
2022/03/08 08:12:50;;;;;;;10.25;4.70;;;4.10;57.50;;;;;;5113459;28;20024;-66
2022/03/08 08:15:16;;;;;;;9.70;5.68;;;4.20;57.30;;;;;;5113449;28;20032;-67
2022/03/08 08:17:42;;;;;;;13.70;6.43;;;4.30;56.20;;;;;;5113448;28;20088;-67
2022/03/08 08:20:08;;;;;;;10.00;5.65;;;4.40;56.60;;;;;;5095465;28;20035;-66
2022/03/08 08:22:34;;;;;;;10.18;6.18;;;4.50;57.00;;;;;;5095451;28;20043;-66
2022/03/08 08:25:00;;;;;;;8.43;5.10;;;4.60;54.50;;;;;;5095376;28;20024;-66
2022/03/08 08:27:26;;;;;;;9.60;4.75;;;4.80;53.90;;;;;;5113281;28;20024;-67
2022/03/08 08:29:51;;;;;;;15.70;4.97;;;4.80;54.30;;;;;;5113338;28;20476;-66
2022/03/08 08:32:17;;;;;;;7.75;4.43;;;4.90;53.60;;;;;;5081465;28;20040;-66
2022/03/08 08:34:42;;;;;;;9.45;5.32;;;5.00;52.70;;;;;;5117515;28;20032;-66
2022/03/08 08:37:09;;;;;;;10.55;5.57;;;5.20;53.90;;;;;;5099637;28;20088;-66
2022/03/08 08:39:35;;;;;;;6.18;3.72;;;5.30;51.70;;;;;;5117534;28;20028;-66
2022/03/08 08:42:01;;;;;;;10.88;3.92;;;5.40;51.60;;;;;;5099638;28;20032;-66
2022/03/08 08:44:26;;;;;;;10.43;5.63;;;5.50;51.00;;;;;;5117461;28;20028;-66
2022/03/08 08:46:53;;;;;;;9.57;6.13;;;5.60;51.10;;;;;;5117230;28;20024;-66
2022/03/08 08:49:19;;;;;;;8.48;5.70;;;5.70;51.30;;;;;;5117231;28;20020;-67
2022/03/08 08:51:45;;;;;;;7.85;4.25;;;5.80;49.30;;;;;;5117202;28;20024;-67
2022/03/08 08:54:11;;;;;;;8.50;5.40;;;5.90;50.00;;;;;;5099178;28;20044;-67
2022/03/08 08:56:37;;;;;;;9.05;5.68;;;5.90;48.30;;;;;;5099423;28;20031;-67
2022/03/08 08:59:03;;;;;;;6.15;3.80;;;6.00;48.90;;;;;;5117224;28;20024;-67
2022/03/08 09:01:29;;;;;;;10.98;4.70;;;6.10;48.40;;;;;;5117005;28;20028;-67
2022/03/08 09:03:54;;;;;;;7.30;3.83;;;6.20;48.70;;;;;;5116981;28;20092;-66
2022/03/08 09:06:20;;;;;;;8.32;4.40;;;6.40;48.90;;;;;;5116939;28;20016;-66
2022/03/08 09:08:46;;;;;;;8.07;4.97;;;6.40;47.20;;;;;;5116847;28;20609;-66
2022/03/08 09:11:12;;;;;;;8.02;4.68;;;6.50;48.30;;;;;;5116830;28;20501;-66
2022/03/08 09:13:38;;;;;;;4.13;2.85;;;6.50;47.50;;;;;;5116806;28;20017;-66
2022/03/08 09:16:05;;;;;;;6.28;4.22;;;6.60;47.40;;;;;;5116727;28;20023;-66
2022/03/08 09:18:30;;;;;;;9.25;5.03;;;6.60;46.00;;;;;;5098674;28;20034;-66
2022/03/08 09:20:56;;;;;;;9.05;5.53;;;6.80;46.90;;;;;;5116679;28;20063;-66
2022/03/08 09:23:22;;;;;;;5.53;2.83;;;7.00;46.20;;;;;;5116762;28;20058;-66
2022/03/08 09:25:48;;;;;;;6.03;4.10;;;7.00;45.10;;;;;;5116505;28;20050;-66
2022/03/08 09:28:13;;;;;;;7.20;4.22;;;7.00;45.00;;;;;;5116438;28;20031;-67
2022/03/08 09:30:41;;;;;;;8.75;3.33;;;7.10;44.00;;;;;;5116512;28;20042;-67
2022/03/08 09:33:06;;;;;;;8.25;4.85;;;7.10;43.20;;;;;;5116415;28;20083;-67
2022/03/08 09:35:32;;;;;;;6.80;3.63;;;7.20;44.00;;;;;;5116389;28;20031;-67
2022/03/08 09:37:58;;;;;;;6.90;2.72;;;7.30;43.60;;;;;;5098303;28;20035;-67
2022/03/08 09:40:24;;;;;;;6.03;3.75;;;7.30;43.30;;;;;;5116340;28;20058;-67
2022/03/08 09:42:50;;;;;;;5.43;3.75;;;7.40;42.40;;;;;;5097993;28;20079;-67
2022/03/08 09:45:17;;;;;;;6.28;3.90;;;7.40;41.80;;;;;;5081641;28;20025;-67
2022/03/08 09:47:43;;;;;;;6.90;3.90;;;7.40;42.70;;;;;;5098229;28;20047;-67
2022/03/08 09:50:11;;;;;;;8.90;4.35;;;7.50;42.70;;;;;;5116104;28;20475;-67
2022/03/08 09:52:39;;;;;;;6.55;4.38;;;7.60;43.00;;;;;;5115598;28;20040;-67
2022/03/08 09:55:06;;;;;;;6.57;4.25;;;7.70;41.20;;;;;;5115995;28;20027;-67
2022/03/08 09:57:32;;;;;;;5.32;3.35;;;7.80;41.30;;;;;;5098221;28;20546;-67
2022/03/08 09:59:58;;;;;;;7.13;4.78;;;7.90;42.00;;;;;;5115906;28;20024;-67
2022/03/08 10:02:24;;;;;;;3.58;2.65;;;7.90;41.70;;;;;;5115881;28;20020;-67
2022/03/08 10:05:06;;;;;;;6.20;4.00;;;8.00;42.00;;;;;;5115850;28;20027;-67
2022/03/08 10:07:33;;;;;;;5.40;3.35;;;8.20;39.40;;;;;;5115789;28;20043;-67
2022/03/08 10:09:59;;;;;;;7.53;3.90;;;8.10;38.70;;;;;;5115738;28;20030;-67
2022/03/08 10:12:27;;;;;;;4.53;2.95;;;8.00;38.80;;;;;;5115686;28;20028;-67
2022/03/08 10:14:53;;;;;;;5.72;3.55;;;8.10;38.50;;;;;;5097631;28;20016;-67
2022/03/08 10:17:37;;;;;;;5.03;3.08;;;8.20;38.50;;;;;;5097748;28;20024;-67
2022/03/08 10:20:08;;;;;;;4.95;2.72;;;8.30;38.10;;;;;;5115596;28;20028;-67
2022/03/08 10:22:41;;;;;;;7.90;4.40;;;8.20;38.20;;;;;;5115634;28;20020;-67
2022/03/08 10:25:22;;;;;;;12.60;4.68;;;8.30;38.40;;;;;;5115417;28;20095;-67
2022/03/08 10:27:53;;;;;;;5.22;3.03;;;8.40;37.90;;;;;;5115330;28;20024;-67
2022/03/08 10:30:20;;;;;;;13.47;4.40;;;8.50;37.10;;;;;;5115368;28;20051;-67
2022/03/08 10:32:47;;;;;;;5.40;2.97;;;8.50;37.20;;;;;;5115294;28;20028;-67
2022/03/08 10:35:25;;;;;;;4.20;2.28;;;8.50;36.80;;;;;;5115193;28;20036;-67
2022/03/08 10:37:51;;;;;;;6.75;4.05;;;8.50;37.20;;;;;;5115358;28;20031;-67
2022/03/08 10:40:32;;;;;;;7.25;3.58;;;8.60;37.50;;;;;;5115130;28;20020;-67
2022/03/08 10:43:03;;;;;;;5.18;2.95;;;8.70;36.80;;;;;;5097130;28;20059;-67
2022/03/08 10:45:30;;;;;;;6.07;3.63;;;8.70;38.10;;;;;;5115061;28;20099;-65
2022/03/08 10:47:56;;;;;;;6.90;4.35;;;8.80;35.70;;;;;;5114903;28;20040;-65
2022/03/08 10:50:28;;;;;;;6.47;4.10;;;8.80;35.70;;;;;;5114951;28;20092;-66
2022/03/08 10:52:56;;;;;;;5.78;3.97;;;8.80;37.50;;;;;;5114708;28;20068;-65
2022/03/08 10:55:28;;;;;;;7.65;3.88;;;8.90;35.20;;;;;;5114116;28;20084;-66
2022/03/08 10:58:03;;;;;;;4.22;2.63;;;8.90;36.30;;;;;;5114937;28;20433;-65
2022/03/08 11:00:37;;;;;;;9.05;3.75;;;9.00;36.20;;;;;;5114828;28;20053;-65
2022/03/08 11:03:08;;;;;;;10.38;4.97;;;9.00;36.10;;;;;;5096794;28;20021;-65
2022/03/08 11:05:38;;;;;;;5.80;3.35;;;9.00;35.40;;;;;;5114701;28;20103;-66
2022/03/08 11:08:05;;;;;;;6.13;3.67;;;9.00;35.60;;;;;;5114525;28;20023;-65
2022/03/08 11:10:31;;;;;;;6.97;3.45;;;9.10;36.30;;;;;;5114556;28;20040;-65
2022/03/08 11:12:58;;;;;;;4.43;3.47;;;9.10;36.20;;;;;;5096594;28;20032;-66
2022/03/08 11:15:25;;;;;;;5.30;3.33;;;9.20;36.20;;;;;;5114457;28;20016;-66
2022/03/08 11:17:54;;;;;;;6.07;3.83;;;9.30;36.70;;;;;;5096553;28;20078;-65
2022/03/08 11:20:21;;;;;;;7.65;4.20;;;9.30;35.80;;;;;;5096434;28;20032;-66
2022/03/08 11:22:49;;;;;;;4.97;2.75;;;9.40;36.80;;;;;;5096492;28;20035;-66
2022/03/08 11:25:16;;;;;;;6.38;2.97;;;9.50;35.30;;;;;;5096221;28;20050;-66
2022/03/08 11:27:44;;;;;;;4.78;3.25;;;9.40;35.00;;;;;;5096481;28;20038;-66
2022/03/08 11:30:14;;;;;;;10.07;4.75;;;9.50;35.50;;;;;;5114221;28;20028;-65
2022/03/08 11:33:11;;;;;;;5.53;3.25;;;9.50;36.20;;;;;;5114190;28;20016;-66
2022/03/08 11:35:59;;;;;;;4.40;2.80;;;9.50;35.00;;;;;;5096200;28;20024;-65
2022/03/08 11:38:24;;;;;;;5.28;3.13;;;9.50;34.40;;;;;;5114115;28;20028;-66
2022/03/08 11:40:53;;;;;;;5.20;3.92;;;9.60;35.00;;;;;;5114037;28;20028;-66
2022/03/08 11:43:20;;;;;;;9.40;4.82;;;9.60;34.60;;;;;;5113946;28;20398;-66
2022/03/08 11:45:48;;;;;;;5.07;3.85;;;9.70;35.90;;;;;;5113945;28;20031;-65
2022/03/08 11:48:19;;;;;;;6.10;3.88;;;9.80;36.30;;;;;;5113771;28;20022;-66
2022/03/08 11:50:46;;;;;;;7.20;4.45;;;9.80;33.40;;;;;;5113871;28;20020;-66
2022/03/08 11:53:24;;;;;;;5.90;4.78;;;9.80;34.30;;;;;;5113556;28;20478;-66
2022/03/08 11:55:55;;;;;;;6.13;3.83;;;9.90;35.50;;;;;;5113900;28;20040;-66
2022/03/08 11:58:23;;;;;;;5.85;3.45;;;10.00;36.10;;;;;;5095790;28;20087;-66
2022/03/08 12:00:57;;;;;;;7.85;4.30;;;10.10;34.70;;;;;;5095805;28;20020;-66
2022/03/08 12:03:22;;;;;;;7.45;4.43;;;10.20;34.50;;;;;;5095827;28;20474;-65
2022/03/08 12:05:57;;;;;;;6.82;4.32;;;10.30;33.80;;;;;;5113550;28;20059;-66
2022/03/08 12:08:28;;;;;;;6.25;3.67;;;10.10;34.10;;;;;;5113643;28;20054;-66
2022/03/08 12:11:03;;;;;;;4.72;3.15;;;10.20;34.20;;;;;;5113645;28;20024;-66
2022/03/08 12:13:37;;;;;;;9.85;4.55;;;10.20;35.00;;;;;;5113590;28;20027;-66
2022/03/08 12:16:09;;;;;;;8.40;3.97;;;10.30;34.80;;;;;;5095526;28;20020;-66
2022/03/08 12:18:37;;;;;;;11.05;4.45;;;10.30;33.00;;;;;;5113463;28;20035;-66
2022/03/08 12:21:27;;;;;;;6.38;3.85;;;10.30;33.80;;;;;;5113452;28;20024;-66
2022/03/08 12:23:57;;;;;;;8.73;4.90;;;10.30;35.90;;;;;;5102983;28;20068;-66
2022/03/08 12:26:38;;;;;;;8.68;4.65;;;10.40;35.20;;;;;;5113598;28;20028;-66
2022/03/08 12:29:23;;;;;;;5.75;3.78;;;10.60;32.70;;;;;;5113282;28;20031;-66
2022/03/08 12:31:58;;;;;;;5.18;3.72;;;10.60;34.20;;;;;;5113367;28;20020;-66
2022/03/08 12:34:46;;;;;;;7.15;4.43;;;10.60;32.60;;;;;;5113308;28;20016;-65
2022/03/08 12:37:16;;;;;;;8.18;3.97;;;10.60;32.60;;;;;;5095425;28;20123;-65
2022/03/08 12:40:04;;;;;;;6.47;3.92;;;10.70;32.50;;;;;;5113254;28;20020;-65
2022/03/08 12:42:52;;;;;;;11.40;5.10;;;10.70;33.70;;;;;;5113277;28;20027;-65
2022/03/08 12:45:23;;;;;;;11.57;4.95;;;10.80;34.10;;;;;;5113311;28;20031;-66
2022/03/08 12:48:00;;;;;;;5.70;3.88;;;10.90;33.00;;;;;;5113106;28;20028;-66
2022/03/08 12:50:30;;;;;;;5.97;4.07;;;10.90;34.60;;;;;;5113314;28;20021;-66
2022/03/08 12:53:08;;;;;;;7.05;4.60;;;11.00;34.40;;;;;;5113052;28;20036;-65